createdAt,value
2024-02-23T00:00:01.108Z,89.40
2024-02-23T00:02:28.657Z,89.58
2024-02-23T00:04:56.054Z,89.62
2024-02-23T00:07:23.420Z,89.67
2024-02-23T00:09:50.793Z,89.86
2024-02-23T00:12:18.499Z,89.97
2024-02-23T00:14:45.898Z,89.98
2024-02-23T00:17:13.995Z,89.54
2024-02-23T00:19:41.290Z,89.65
2024-02-23T00:22:09.357Z,89.64
2024-02-23T00:24:38.191Z,89.57
2024-02-23T00:27:05.819Z,89.54
2024-02-23T00:29:33.111Z,89.68
2024-02-23T00:32:00.489Z,89.34
2024-02-23T00:34:27.961Z,89.31
2024-02-23T00:36:55.369Z,89.23
2024-02-23T00:39:22.880Z,88.61
2024-02-23T00:41:50.478Z,88.30
2024-02-23T00:44:17.935Z,88.10
2024-02-23T00:46:45.503Z,87.89
2024-02-23T00:49:12.921Z,87.96
2024-02-23T00:51:40.368Z,87.88
2024-02-23T00:54:09.226Z,88.07
2024-02-23T00:56:45.682Z,87.80
2024-02-23T00:59:18.634Z,87.78
2024-02-23T01:01:46.504Z,87.58
2024-02-23T01:04:13.931Z,87.00
2024-02-23T01:06:41.189Z,85.95
2024-02-23T01:09:08.635Z,85.51
2024-02-23T01:11:35.976Z,84.64
2024-02-23T01:14:03.402Z,83.83
2024-02-23T01:16:30.769Z,83.73
2024-02-23T01:18:58.042Z,82.99
2024-02-23T01:21:25.463Z,82.95
2024-02-23T01:23:52.704Z,81.86
2024-02-23T01:26:20.130Z,81.74
2024-02-23T01:28:47.375Z,81.76
2024-02-23T01:31:15.002Z,82.29
2024-02-23T01:33:42.467Z,82.55
2024-02-23T01:36:09.828Z,83.07
2024-02-23T01:38:37.273Z,83.96
2024-02-23T01:41:05.589Z,84.39
2024-02-23T01:43:32.940Z,84.65
2024-02-23T01:46:00.398Z,84.55
2024-02-23T01:48:28.429Z,84.64
2024-02-23T01:50:56.616Z,84.30
2024-02-23T01:53:26.917Z,84.33
2024-02-23T01:55:56.148Z,84.47
2024-02-23T01:58:23.776Z,83.88
2024-02-23T02:00:51.206Z,83.38
2024-02-23T02:03:18.552Z,83.62
2024-02-23T02:05:46.690Z,83.56
2024-02-23T02:08:13.965Z,83.36
2024-02-23T02:10:41.809Z,83.62
2024-02-23T02:13:09.264Z,83.50
2024-02-23T02:15:36.663Z,83.51
2024-02-23T02:18:04.180Z,83.43
2024-02-23T02:20:34.646Z,83.64
2024-02-23T02:23:02.299Z,83.80
2024-02-23T02:25:29.668Z,83.78
2024-02-23T02:27:57.173Z,84.13
2024-02-23T02:30:24.475Z,84.14
2024-02-23T02:32:51.961Z,84.20
2024-02-23T02:35:19.415Z,84.45
2024-02-23T02:37:46.770Z,84.36
2024-02-23T02:40:14.314Z,83.95
2024-02-23T02:42:41.668Z,84.51
2024-02-23T02:45:09.271Z,84.64
2024-02-23T02:47:37.786Z,84.84
2024-02-23T02:50:08.024Z,84.69
2024-02-23T02:52:35.491Z,84.35
2024-02-23T02:55:03.001Z,84.30
2024-02-23T02:57:31.278Z,83.83
2024-02-23T02:59:58.562Z,83.41
2024-02-23T03:02:26.083Z,83.47
2024-02-23T03:04:53.413Z,82.79
2024-02-23T03:07:20.779Z,82.58
2024-02-23T03:09:48.076Z,82.46
2024-02-23T03:12:15.526Z,82.31
2024-02-23T03:14:43.120Z,82.26
2024-02-23T03:17:11.313Z,81.91
2024-02-23T03:19:39.281Z,81.88
2024-02-23T03:22:07.091Z,81.62
2024-02-23T03:24:34.422Z,81.93
2024-02-23T03:27:01.961Z,82.03
2024-02-23T03:29:32.421Z,82.33
2024-02-23T03:32:00.277Z,82.07
2024-02-23T03:34:27.604Z,81.55
2024-02-23T03:36:55.127Z,81.44
2024-02-23T03:39:22.542Z,81.25
2024-02-23T03:41:49.893Z,80.83
2024-02-23T03:44:17.322Z,80.39
2024-02-23T03:46:44.627Z,80.15
2024-02-23T03:49:13.442Z,80.56
2024-02-23T03:51:41.001Z,80.57
2024-02-23T03:54:08.344Z,80.89
2024-02-23T03:56:43.142Z,80.75
2024-02-23T03:59:11.341Z,80.99
2024-02-23T04:01:40.999Z,80.82
2024-02-23T04:04:08.673Z,81.27
2024-02-23T04:06:36.553Z,81.55
2024-02-23T04:09:07.158Z,81.92
2024-02-23T04:11:34.933Z,82.22
2024-02-23T04:14:03.170Z,82.59
2024-02-23T04:16:30.663Z,82.02
2024-02-23T04:18:58.452Z,82.01
2024-02-23T04:21:25.986Z,82.08
2024-02-23T04:23:53.853Z,82.00
2024-02-23T04:26:21.289Z,82.70
2024-02-23T04:28:48.614Z,83.19
2024-02-23T04:31:16.014Z,83.67
2024-02-23T04:33:43.719Z,83.69
2024-02-23T04:36:11.212Z,83.75
2024-02-23T04:38:38.665Z,84.09
2024-02-23T04:41:06.729Z,84.24
2024-02-23T04:43:34.323Z,84.27
2024-02-23T04:46:01.525Z,84.66
2024-02-23T04:48:29.062Z,85.16
2024-02-23T04:50:56.362Z,85.67
2024-02-23T04:53:23.781Z,86.15
2024-02-23T04:55:51.073Z,86.40
2024-02-23T04:58:18.394Z,86.40
2024-02-23T05:00:45.851Z,86.82
2024-02-23T05:03:14.163Z,86.52
2024-02-23T05:05:41.740Z,86.60
2024-02-23T05:08:09.084Z,87.28
2024-02-23T05:10:36.441Z,87.29
2024-02-23T05:13:03.686Z,86.93
2024-02-23T05:15:31.685Z,87.18
2024-02-23T05:17:59.139Z,86.94
2024-02-23T05:20:26.419Z,86.55
2024-02-23T05:22:53.831Z,86.62
2024-02-23T05:25:21.149Z,86.36
2024-02-23T05:27:48.604Z,86.82
2024-02-23T05:30:15.947Z,87.06
2024-02-23T05:32:43.416Z,86.91
2024-02-23T05:35:11.060Z,87.02
2024-02-23T05:37:38.712Z,87.15
2024-02-23T05:40:11.831Z,87.11
2024-02-23T05:42:40.199Z,87.42
2024-02-23T05:45:11.111Z,87.73
2024-02-23T05:47:45.913Z,87.59
2024-02-23T05:50:15.732Z,88.67
2024-02-23T05:52:43.108Z,87.83
2024-02-23T05:55:10.578Z,87.66
2024-02-23T05:57:37.807Z,85.27
2024-02-23T06:00:06.365Z,83.96
2024-02-23T06:02:39.702Z,83.52
2024-02-23T06:05:09.325Z,82.19
2024-02-23T06:07:38.205Z,81.49
2024-02-23T06:10:06.557Z,79.72
2024-02-23T06:12:33.890Z,77.81
2024-02-23T06:15:01.312Z,75.65
2024-02-23T06:17:28.897Z,75.26
2024-02-23T06:19:58.990Z,72.59
2024-02-23T06:22:27.041Z,71.71
2024-02-23T06:24:54.471Z,69.31
2024-02-23T06:27:26.329Z,68.64
2024-02-23T06:29:53.775Z,68.43
2024-02-23T06:32:21.090Z,66.98
2024-02-23T06:34:48.454Z,65.81
2024-02-23T06:37:15.728Z,64.91
2024-02-23T06:39:43.475Z,64.40
2024-02-23T06:42:10.753Z,63.36
2024-02-23T06:44:38.246Z,62.70
2024-02-23T06:47:06.193Z,65.27
2024-02-23T06:49:33.786Z,67.00
2024-02-23T06:52:01.065Z,69.74
2024-02-23T06:54:28.383Z,71.65
2024-02-23T06:56:55.803Z,73.21
2024-02-23T06:59:25.502Z,75.05
2024-02-23T07:01:53.759Z,76.24
2024-02-23T07:04:21.203Z,76.68
2024-02-23T07:06:48.596Z,76.89
2024-02-23T07:09:16.231Z,77.16
2024-02-23T07:11:45.316Z,77.45
2024-02-23T07:14:19.305Z,77.52
2024-02-23T07:16:50.147Z,77.89
2024-02-23T07:19:17.791Z,78.24
2024-02-23T07:21:45.130Z,78.82
2024-02-23T07:24:12.722Z,78.51
2024-02-23T07:26:40.189Z,79.10
2024-02-23T07:29:08.427Z,78.99
2024-02-23T07:31:36.160Z,78.88
2024-02-23T07:34:03.776Z,78.41
2024-02-23T07:36:31.479Z,78.16
2024-02-23T07:38:58.988Z,78.26
2024-02-23T07:41:26.473Z,77.55
2024-02-23T07:43:53.879Z,77.52
2024-02-23T07:46:22.016Z,74.54
2024-02-23T07:48:49.837Z,73.27
2024-02-23T07:51:17.409Z,72.23
2024-02-23T07:53:44.895Z,72.79
2024-02-23T07:56:13.193Z,73.80
2024-02-23T07:58:40.416Z,73.48
2024-02-23T08:01:07.861Z,72.90
2024-02-23T08:03:36.514Z,72.22
2024-02-23T08:06:04.671Z,73.34
2024-02-23T08:08:36.244Z,73.44
2024-02-23T08:11:04.773Z,73.70
2024-02-23T08:13:32.289Z,72.67
2024-02-23T08:15:59.805Z,72.70
2024-02-23T08:18:28.226Z,72.25
2024-02-23T08:20:55.804Z,71.78
2024-02-23T08:23:24.400Z,71.96
2024-02-23T08:25:52.037Z,72.00
2024-02-23T08:28:19.486Z,71.89
2024-02-23T08:30:47.736Z,71.26
2024-02-23T08:33:15.198Z,72.00
2024-02-23T08:35:42.570Z,72.80
2024-02-23T08:38:10.394Z,72.91
2024-02-23T08:40:37.736Z,73.07
2024-02-23T08:43:05.278Z,73.25
2024-02-23T08:48:35.303Z,72.65
2024-02-23T08:51:02.580Z,72.20
2024-02-23T08:53:29.786Z,70.39
2024-02-23T08:55:57.114Z,69.81
2024-02-23T08:58:24.465Z,69.06
2024-02-23T09:00:51.760Z,68.88
2024-02-23T09:03:19.189Z,68.88
2024-02-23T09:05:48.606Z,68.02
2024-02-23T09:08:16.221Z,66.99
2024-02-23T09:10:43.915Z,67.68
2024-02-23T09:13:12.442Z,66.80
2024-02-23T09:15:39.882Z,67.11
2024-02-23T09:18:07.332Z,67.37
2024-02-23T09:20:34.815Z,66.18
2024-02-23T09:23:02.251Z,65.18
2024-02-23T09:25:30.687Z,64.48
2024-02-23T09:27:59.064Z,62.34
2024-02-23T09:30:26.578Z,60.96
2024-02-23T09:32:54.002Z,62.50
2024-02-23T09:35:21.811Z,63.49
2024-02-23T09:37:49.215Z,61.69
2024-02-23T09:40:17.705Z,60.22
2024-02-23T09:42:51.662Z,59.95
2024-02-23T09:45:19.052Z,58.69
2024-02-23T09:47:48.345Z,60.24
2024-02-23T09:50:19.167Z,60.42
2024-02-23T09:52:48.364Z,59.72
2024-02-23T09:55:15.719Z,59.36
2024-02-23T09:57:43.860Z,59.30
2024-02-23T10:00:12.132Z,58.64
2024-02-23T10:02:41.329Z,58.88
2024-02-23T10:05:11.507Z,58.98
2024-02-23T10:07:39.143Z,58.62
2024-02-23T10:10:10.347Z,57.76
2024-02-23T10:12:38.555Z,56.88
2024-02-23T10:15:06.405Z,55.64
2024-02-23T10:17:36.481Z,55.63
2024-02-23T10:20:07.730Z,55.53
2024-02-23T10:22:36.993Z,54.94
2024-02-23T10:25:04.769Z,54.13
2024-02-23T10:27:32.159Z,54.81
2024-02-23T10:29:59.427Z,55.93
2024-02-23T10:32:32.061Z,56.18
2024-02-23T10:35:05.487Z,55.83
2024-02-23T10:37:33.446Z,54.90
2024-02-23T10:40:02.635Z,53.55
2024-02-23T10:42:35.528Z,52.92
2024-02-23T10:45:05.340Z,53.06
2024-02-23T10:47:33.891Z,53.50
2024-02-23T10:50:04.624Z,53.20
2024-02-23T10:52:33.245Z,53.32
2024-02-23T10:55:05.837Z,52.35
2024-02-23T10:57:33.747Z,51.65
2024-02-23T11:00:01.727Z,51.86
2024-02-23T11:02:32.607Z,52.42
2024-02-23T11:05:00.994Z,52.10
2024-02-23T11:07:31.330Z,51.63
2024-02-23T11:10:02.331Z,50.56
2024-02-23T11:12:32.901Z,51.51
2024-02-23T11:15:04.895Z,51.09
2024-02-23T11:17:34.406Z,51.04
2024-02-23T11:20:06.228Z,51.16
2024-02-23T11:22:38.841Z,50.40
2024-02-23T11:25:12.122Z,50.13
2024-02-23T11:27:43.817Z,50.37
2024-02-23T11:30:13.294Z,50.21
2024-02-23T11:32:43.084Z,49.68
2024-02-23T11:35:12.820Z,47.75
2024-02-23T11:38:04.966Z,45.91
2024-02-23T11:40:33.799Z,45.71
2024-02-23T11:43:05.168Z,45.25
2024-02-23T11:45:33.026Z,44.63
2024-02-23T11:48:01.172Z,44.59
2024-02-23T11:50:28.896Z,44.62
2024-02-23T11:52:56.356Z,45.51
2024-02-23T11:55:24.873Z,44.46
2024-02-23T11:58:01.152Z,43.11
2024-02-23T12:00:33.482Z,42.41
2024-02-23T12:03:01.162Z,42.56
2024-02-23T12:05:28.771Z,42.29
2024-02-23T12:07:57.662Z,41.30
2024-02-23T12:10:25.088Z,41.69
2024-02-23T12:12:52.456Z,41.71
2024-02-23T12:15:20.871Z,40.95
2024-02-23T12:17:52.079Z,40.75
2024-02-23T12:20:19.867Z,41.24
2024-02-23T12:22:48.731Z,41.72
2024-02-23T12:25:16.455Z,40.53
2024-02-23T12:27:44.941Z,40.62
2024-02-23T12:30:17.010Z,40.01
2024-02-23T12:32:44.478Z,40.93
2024-02-23T12:35:13.909Z,41.04
2024-02-23T12:37:45.593Z,41.33
2024-02-23T12:40:14.391Z,42.45
2024-02-23T12:42:42.385Z,42.76
2024-02-23T12:45:10.068Z,42.64
2024-02-23T12:47:38.606Z,42.74
2024-02-23T12:50:07.186Z,42.54
2024-02-23T12:52:34.612Z,42.41
2024-02-23T12:55:01.865Z,42.71
2024-02-23T12:57:29.200Z,42.65
2024-02-23T12:59:56.478Z,42.81
2024-02-23T13:02:23.861Z,43.02
2024-02-23T13:04:51.241Z,41.94
2024-02-23T13:07:18.626Z,39.70
2024-02-23T13:09:46.353Z,37.80
2024-02-23T13:12:13.859Z,38.18
2024-02-23T13:14:41.510Z,38.93
2024-02-23T13:17:08.942Z,39.65
2024-02-23T13:19:36.495Z,40.16
2024-02-23T13:22:03.739Z,40.98
2024-02-23T13:24:31.044Z,41.60
2024-02-23T13:26:58.377Z,42.58
2024-02-23T13:29:25.712Z,43.61
2024-02-23T13:31:53.169Z,44.41
2024-02-23T13:34:20.870Z,45.07
2024-02-23T13:36:48.798Z,45.50
2024-02-23T13:39:16.158Z,45.96
2024-02-23T13:41:43.661Z,46.43
2024-02-23T13:44:11.069Z,46.70
2024-02-23T13:46:40.543Z,46.46
2024-02-23T13:49:10.327Z,46.91
2024-02-23T13:51:38.130Z,46.87
2024-02-23T13:54:05.424Z,47.55
2024-02-23T13:56:32.899Z,47.71
2024-02-23T13:59:00.344Z,47.68
2024-02-23T14:01:28.492Z,47.91
2024-02-23T14:03:55.863Z,48.56
2024-02-23T14:06:24.134Z,48.75
2024-02-23T14:08:51.626Z,48.82
2024-02-23T14:11:20.263Z,48.46
2024-02-23T14:13:50.127Z,49.12
2024-02-23T14:16:19.328Z,49.76
2024-02-23T14:18:46.642Z,49.27
2024-02-23T14:21:15.767Z,49.69
2024-02-23T14:23:43.974Z,49.57
2024-02-23T14:26:11.799Z,49.32
2024-02-23T14:28:39.422Z,48.92
2024-02-23T14:31:06.730Z,48.87
2024-02-23T14:33:34.676Z,49.46
2024-02-23T14:36:02.221Z,49.62
2024-02-23T14:38:29.580Z,49.83
2024-02-23T14:40:56.962Z,49.58
2024-02-23T14:43:24.139Z,49.82
2024-02-23T14:45:53.869Z,50.06
2024-02-23T14:48:21.544Z,50.49
2024-02-23T14:50:49.112Z,50.42
2024-02-23T14:53:17.263Z,50.44
2024-02-23T14:55:44.567Z,50.22
2024-02-23T14:58:11.986Z,50.19
2024-02-23T15:00:39.293Z,50.09
2024-02-23T15:03:07.018Z,50.04
2024-02-23T15:05:34.635Z,50.85
2024-02-23T15:08:02.251Z,50.68
2024-02-23T15:10:29.633Z,51.01
2024-02-23T15:12:57.119Z,51.06
2024-02-23T15:15:24.437Z,51.27
2024-02-23T15:17:53.668Z,51.44
2024-02-23T15:20:21.227Z,51.81
2024-02-23T15:22:50.934Z,52.41
2024-02-23T15:25:18.446Z,52.92
2024-02-23T15:27:45.930Z,53.42
2024-02-23T15:30:13.243Z,53.61
2024-02-23T15:32:41.905Z,54.27
2024-02-23T15:35:09.548Z,54.35
2024-02-23T15:37:37.046Z,54.50
2024-02-23T15:40:05.264Z,54.47
2024-02-23T15:42:32.810Z,54.39
2024-02-23T15:45:00.250Z,54.50
2024-02-23T15:47:27.733Z,54.47
2024-02-23T15:50:16.509Z,54.37
2024-02-23T15:52:43.791Z,54.19
2024-02-23T15:55:13.413Z,53.82
2024-02-23T15:57:41.113Z,53.90
2024-02-23T16:00:09.222Z,53.96
2024-02-23T16:02:37.481Z,54.35
2024-02-23T16:05:07.858Z,54.44
2024-02-23T16:07:35.636Z,54.88
2024-02-23T16:10:03.069Z,54.92
2024-02-23T16:12:30.403Z,55.42
2024-02-23T16:14:57.747Z,55.39
2024-02-23T16:17:25.195Z,55.60
2024-02-23T16:19:52.428Z,55.64
2024-02-23T16:22:19.816Z,55.33
2024-02-23T16:24:48.998Z,55.82
2024-02-23T16:27:18.372Z,55.62
2024-02-23T16:29:46.365Z,55.41
2024-02-23T16:32:14.327Z,55.74
2024-02-23T16:34:41.665Z,56.25
2024-02-23T16:37:10.273Z,56.40
2024-02-23T16:39:37.781Z,56.42
2024-02-23T16:42:06.718Z,56.84
2024-02-23T16:44:34.211Z,57.09
2024-02-23T16:47:01.670Z,57.54
2024-02-23T16:49:29.037Z,58.09
2024-02-23T16:51:56.627Z,58.33
2024-02-23T16:54:24.049Z,58.38
2024-02-23T16:56:51.531Z,59.00
2024-02-23T16:59:19.037Z,58.80
2024-02-23T17:01:46.497Z,59.09
2024-02-23T17:04:13.828Z,59.50
2024-02-23T17:06:41.131Z,59.72
2024-02-23T17:09:11.282Z,60.22
2024-02-23T17:11:39.499Z,60.38
2024-02-23T17:14:07.189Z,60.39
2024-02-23T17:16:34.877Z,60.90
2024-02-23T17:19:02.297Z,60.91
2024-02-23T17:21:29.747Z,61.34
2024-02-23T17:23:57.052Z,61.39
2024-02-23T17:26:24.417Z,61.63
2024-02-23T17:28:52.359Z,61.96
2024-02-23T17:31:19.864Z,62.53
2024-02-23T17:33:47.286Z,62.86
2024-02-23T17:36:14.825Z,63.46
2024-02-23T17:38:42.827Z,63.46
2024-02-23T17:41:10.339Z,63.96
2024-02-23T17:43:37.700Z,64.65
2024-02-23T17:46:09.056Z,64.81
2024-02-23T17:48:37.529Z,65.18
2024-02-23T17:51:05.882Z,65.64
2024-02-23T17:53:33.246Z,66.41
2024-02-23T17:56:00.725Z,66.58
2024-02-23T17:58:27.988Z,67.39
2024-02-23T18:00:55.303Z,67.80
2024-02-23T18:03:22.683Z,67.96
2024-02-23T18:05:50.228Z,68.34
2024-02-23T18:08:17.756Z,68.63
2024-02-23T18:10:45.026Z,69.43
2024-02-23T18:13:13.965Z,69.85
2024-02-23T18:15:41.429Z,70.49
2024-02-23T18:18:10.314Z,70.86
2024-02-23T18:20:37.801Z,71.39
2024-02-23T18:23:05.229Z,71.62
2024-02-23T18:25:32.465Z,71.77
2024-02-23T18:27:59.883Z,72.42
2024-02-23T18:30:27.138Z,72.53
2024-02-23T18:32:54.632Z,72.97
2024-02-23T18:35:22.008Z,73.17
2024-02-23T18:37:49.429Z,73.47
2024-02-23T18:40:16.814Z,73.71
2024-02-23T18:42:44.160Z,74.13
2024-02-23T18:45:11.534Z,74.40
2024-02-23T18:47:38.992Z,74.36
2024-02-23T18:50:06.651Z,74.47
2024-02-23T18:52:34.060Z,74.57
2024-02-23T18:55:01.814Z,74.71
2024-02-23T18:57:30.662Z,74.91
2024-02-23T18:59:57.918Z,74.95
2024-02-23T19:02:25.156Z,75.08
2024-02-23T19:04:52.455Z,75.32
2024-02-23T19:07:20.016Z,75.52
2024-02-23T19:09:47.209Z,75.60
2024-02-23T19:12:14.956Z,75.72
2024-02-23T19:14:42.381Z,75.97
2024-02-23T19:17:10.347Z,76.10
2024-02-23T19:19:37.843Z,76.41
2024-02-23T19:22:05.422Z,76.26
2024-02-23T19:24:32.604Z,76.47
2024-02-23T19:27:01.505Z,76.70
2024-02-23T19:29:29.093Z,77.23
2024-02-23T19:31:56.456Z,77.14
2024-02-23T19:34:23.864Z,77.27
2024-02-23T19:36:55.346Z,77.25
2024-02-23T19:39:22.804Z,77.36
2024-02-23T19:41:50.197Z,77.29
2024-02-23T19:44:17.554Z,77.59
2024-02-23T19:46:44.937Z,77.95
2024-02-23T19:49:12.515Z,77.88
2024-02-23T19:51:39.900Z,78.26
2024-02-23T19:54:07.254Z,78.31
2024-02-23T19:56:34.633Z,78.63
2024-02-23T19:59:02.086Z,78.83
2024-02-23T20:01:29.350Z,78.86
2024-02-23T20:03:56.693Z,78.82
2024-02-23T20:06:24.431Z,79.08
2024-02-23T20:08:52.322Z,78.87
2024-02-23T20:11:19.864Z,78.93
2024-02-23T20:13:47.922Z,78.97
2024-02-23T20:16:15.253Z,79.09
2024-02-23T20:18:42.889Z,78.90
2024-02-23T20:21:10.311Z,78.58
2024-02-23T20:23:37.634Z,78.71
2024-02-23T20:26:05.378Z,78.85
2024-02-23T20:28:32.970Z,79.13
2024-02-23T20:31:05.403Z,79.45
2024-02-23T20:33:34.261Z,79.61
2024-02-23T20:36:01.636Z,79.95
2024-02-23T20:38:29.043Z,80.46
2024-02-23T20:40:56.307Z,80.65
2024-02-23T20:43:24.485Z,81.10
2024-02-23T20:45:52.630Z,81.63
2024-02-23T20:48:20.250Z,81.62
2024-02-23T20:50:48.369Z,81.86
2024-02-23T20:53:15.826Z,82.27
2024-02-23T20:55:43.052Z,82.71
2024-02-23T20:58:10.376Z,83.18
2024-02-23T21:00:38.135Z,83.11
2024-02-23T21:03:05.657Z,82.97
2024-02-23T21:05:33.127Z,83.24
2024-02-23T21:08:00.590Z,83.52
2024-02-23T21:10:27.797Z,83.57
2024-02-23T21:12:55.096Z,83.92
2024-02-23T21:15:23.214Z,84.19
2024-02-23T21:17:50.763Z,84.30
2024-02-23T21:20:18.464Z,84.59
2024-02-23T21:22:45.805Z,84.48
2024-02-23T21:25:13.095Z,84.47
2024-02-23T21:27:40.291Z,84.69
2024-02-23T21:30:09.319Z,84.79
2024-02-23T21:32:36.757Z,84.66
2024-02-23T21:35:05.210Z,84.73
2024-02-23T21:37:33.007Z,84.66
2024-02-23T21:40:00.355Z,84.72
2024-02-23T21:42:27.637Z,84.58
2024-02-23T21:44:54.933Z,84.39
2024-02-23T21:47:22.456Z,84.32
2024-02-23T21:49:50.086Z,84.14
2024-02-23T21:52:17.310Z,84.69
2024-02-23T21:54:46.122Z,84.61
2024-02-23T21:57:13.734Z,84.34
2024-02-23T21:59:41.135Z,84.69
2024-02-23T22:02:10.363Z,84.51
2024-02-23T22:04:39.750Z,84.51
2024-02-23T22:07:08.633Z,84.55
2024-02-23T22:09:36.019Z,84.83
2024-02-23T22:12:03.412Z,84.82
2024-02-23T22:14:30.852Z,84.83
2024-02-23T22:16:58.173Z,84.87
2024-02-23T22:19:25.491Z,85.08
2024-02-23T22:21:52.958Z,85.36
2024-02-23T22:24:20.284Z,85.19
2024-02-23T22:26:47.652Z,85.34
2024-02-23T22:29:14.992Z,85.37
2024-02-23T22:31:47.879Z,85.08
2024-02-23T22:34:15.430Z,84.82
2024-02-23T22:36:44.013Z,84.69
2024-02-23T22:39:11.313Z,84.94
2024-02-23T22:41:40.551Z,85.17
2024-02-23T22:44:10.284Z,85.39
2024-02-23T22:46:39.240Z,85.60
2024-02-23T22:49:06.656Z,85.82
2024-02-23T22:51:34.267Z,86.23
2024-02-23T22:54:01.560Z,86.53
2024-02-23T22:56:28.844Z,86.37
2024-02-23T22:58:56.199Z,86.71
2024-02-23T23:01:23.450Z,86.96
2024-02-23T23:03:50.846Z,86.93
2024-02-23T23:06:24.662Z,86.90
2024-02-23T23:08:58.300Z,86.59
2024-02-23T23:11:26.256Z,86.61
2024-02-23T23:13:53.480Z,86.29
2024-02-23T23:16:20.878Z,85.91
2024-02-23T23:18:48.302Z,86.37
2024-02-23T23:21:15.673Z,86.24
2024-02-23T23:23:43.033Z,86.26
2024-02-23T23:26:10.440Z,86.26
2024-02-23T23:28:37.752Z,85.57
2024-02-23T23:31:05.618Z,85.33
2024-02-23T23:33:33.173Z,84.76
2024-02-23T23:36:00.607Z,84.64
2024-02-23T23:38:27.918Z,84.21
2024-02-23T23:40:55.211Z,83.48
2024-02-23T23:43:22.374Z,83.28
2024-02-23T23:45:49.727Z,83.15
2024-02-23T23:48:18.515Z,82.67
2024-02-23T23:50:45.996Z,82.70
2024-02-23T23:53:13.225Z,82.88
2024-02-23T23:55:40.548Z,82.77
2024-02-23T23:58:08.237Z,82.88
